Time;durP1;ratioP1;P1;durP2;ratioP2;P2;SDS_P1;SDS_P2;PMS_P1;PMS_P2;Temp;Humidity;BMP_temperature;BMP_pressure;BME280_temperature;BME280_humidity;BME280_pressure;Samples;Min_cycle;Max_cycle;Signal;HPM_P1;HPM_P2
2022/11/13 00:00:09;;;;;;;29.40;13.83;;;6.60;99.90;;;;;;10469219;28;20175;-71
2022/11/13 00:05:10;;;;;;;22.07;13.97;;;6.60;99.90;;;;;;10461549;28;20194;-72
2022/11/13 00:10:10;;;;;;;15.90;13.97;;;6.50;99.90;;;;;;10459559;28;20195;-70
2022/11/13 00:15:12;;;;;;;16.20;12.67;;;6.50;99.90;;;;;;10468716;28;20223;-70
2022/11/13 00:20:17;;;;;;;17.70;12.70;;;6.40;99.90;;;;;;10468665;28;20634;-71
2022/11/13 00:25:17;;;;;;;20.73;13.23;;;6.40;99.90;;;;;;10465514;28;20191;-69
2022/11/13 00:30:18;;;;;;;22.53;14.13;;;6.40;99.90;;;;;;10466334;28;20309;-69
2022/11/13 00:35:18;;;;;;;25.20;13.13;;;6.40;99.90;;;;;;10465547;28;20211;-70
2022/11/13 00:40:19;;;;;;;25.93;12.33;;;6.40;99.90;;;;;;10472527;28;20553;-69
2022/11/13 00:45:19;;;;;;;27.40;11.50;;;6.40;99.90;;;;;;10466486;28;20184;-70
2022/11/13 00:50:20;;;;;;;27.67;13.03;;;6.30;99.90;;;;;;10467558;28;20176;-73
2022/11/13 00:55:21;;;;;;;37.83;12.57;;;6.20;99.90;;;;;;10465130;28;20603;-74
2022/11/13 01:00:21;;;;;;;25.93;14.17;;;6.20;99.90;;;;;;10468301;28;20179;-71
2022/11/13 01:05:22;;;;;;;46.00;14.57;;;6.30;99.90;;;;;;10462641;28;20240;-71
2022/11/13 01:10:22;;;;;;;23.87;13.90;;;6.30;99.90;;;;;;10463590;28;20187;-71
2022/11/13 01:15:23;;;;;;;17.23;12.90;;;6.30;99.90;;;;;;10469785;28;20687;-71
2022/11/13 01:20:25;;;;;;;17.60;13.10;;;6.30;99.90;;;;;;10479203;28;20187;-72
2022/11/13 01:25:26;;;;;;;21.77;13.53;;;6.30;99.90;;;;;;10463679;28;20219;-72
2022/11/13 01:30:27;;;;;;;33.27;12.73;;;6.30;99.90;;;;;;10473602;28;20768;-72
2022/11/13 01:35:28;;;;;;;22.07;12.47;;;6.30;99.90;;;;;;10472813;28;20234;-74
2022/11/13 01:40:28;;;;;;;19.50;12.63;;;6.30;99.90;;;;;;10477197;28;20217;-75
2022/11/13 01:46:05;;;;;;;29.30;12.27;;;6.30;99.90;;;;;;10469867;28;20283;-74
2022/11/13 01:51:12;;;;;;;32.13;12.40;;;6.30;99.90;;;;;;10459455;28;20224;-74
2022/11/13 01:56:14;;;;;;;27.50;13.23;;;6.20;99.90;;;;;;10474107;28;20744;-74
2022/11/13 02:01:15;;;;;;;44.43;12.30;;;6.20;99.90;;;;;;10471898;28;20293;-74
2022/11/13 02:06:16;;;;;;;22.67;12.80;;;6.20;99.90;;;;;;10474551;28;20239;-71
2022/11/13 02:11:17;;;;;;;29.40;12.90;;;6.20;99.90;;;;;;10473349;28;20223;-73
2022/11/13 02:16:19;;;;;;;22.17;11.50;;;6.20;99.90;;;;;;10473455;28;20564;-73
2022/11/13 02:21:48;;;;;;;17.43;12.40;;;6.20;99.90;;;;;;10472516;28;20239;-71
2022/11/13 02:26:50;;;;;;;15.10;12.00;;;6.20;99.90;;;;;;10451750;28;20281;-71
2022/11/13 02:31:51;;;;;;;13.90;10.97;;;6.10;99.90;;;;;;10476080;28;20231;-73
2022/11/13 02:36:51;;;;;;;20.90;10.67;;;6.10;99.90;;;;;;10465915;28;20247;-73
2022/11/13 02:41:52;;;;;;;16.97;10.57;;;6.00;99.90;;;;;;10483496;28;20225;-73
2022/11/13 02:46:53;;;;;;;28.67;11.73;;;6.00;99.90;;;;;;10494834;28;20281;-74
2022/11/13 02:51:53;;;;;;;28.43;11.90;;;6.00;99.90;;;;;;10476677;28;20223;-72
2022/11/13 02:56:54;;;;;;;31.73;11.87;;;6.00;99.90;;;;;;10466776;28;20250;-71
2022/11/13 03:01:54;;;;;;;30.80;12.97;;;6.00;99.90;;;;;;10474508;28;20280;-71
2022/11/13 03:06:55;;;;;;;24.00;12.43;;;6.00;99.90;;;;;;10473459;28;20223;-72
2022/11/13 03:11:55;;;;;;;15.83;12.47;;;6.00;99.90;;;;;;10468804;28;20227;-72
2022/11/13 03:16:56;;;;;;;30.17;12.77;;;6.10;99.90;;;;;;10469522;28;20216;-71
2022/11/13 03:21:56;;;;;;;26.13;11.53;;;6.10;99.90;;;;;;10471813;28;20699;-72
2022/11/13 03:26:57;;;;;;;30.50;11.53;;;6.00;99.90;;;;;;10469223;28;20216;-70
2022/11/13 03:31:57;;;;;;;43.13;11.70;;;6.00;99.90;;;;;;10465663;28;20228;-70
2022/11/13 03:36:58;;;;;;;29.47;11.77;;;5.90;99.90;;;;;;10465071;28;20576;-71
2022/11/13 03:41:58;;;;;;;24.27;11.10;;;5.80;99.90;;;;;;10470353;28;20211;-71
2022/11/13 03:46:59;;;;;;;27.53;10.47;;;5.70;99.90;;;;;;10465760;28;20219;-71
2022/11/13 03:51:59;;;;;;;22.53;10.00;;;5.70;99.90;;;;;;10464521;28;20231;-72
2022/11/13 03:57:00;;;;;;;32.87;11.13;;;5.60;99.90;;;;;;10466534;28;20595;-71
2022/11/13 04:02:01;;;;;;;23.27;9.87;;;5.50;99.90;;;;;;10458852;28;20306;-70
2022/11/13 04:07:01;;;;;;;18.17;9.93;;;5.40;99.90;;;;;;10485131;28;20238;-71
2022/11/13 04:12:02;;;;;;;23.83;9.97;;;5.40;99.90;;;;;;10515483;28;20254;-70
2022/11/13 04:17:04;;;;;;;12.13;9.90;;;5.30;99.90;;;;;;10506508;28;20227;-71
2022/11/13 04:22:04;;;;;;;13.43;10.43;;;5.20;99.90;;;;;;10511094;28;20246;-71
2022/11/13 04:27:05;;;;;;;11.63;10.37;;;5.10;99.90;;;;;;10508777;28;20225;-71
2022/11/13 04:32:06;;;;;;;13.50;10.53;;;5.10;99.90;;;;;;10510469;28;20226;-72
2022/11/13 04:37:09;;;;;;;11.70;10.47;;;5.10;99.90;;;;;;10508219;28;20220;-72
2022/11/13 04:47:30;;;;;;;11.83;10.20;;;5.00;99.90;;;;;;10506510;28;20702;-72
2022/11/13 04:52:30;;;;;;;12.87;9.50;;;5.00;99.90;;;;;;10502281;28;20318;-71
2022/11/13 04:57:31;;;;;;;10.60;9.20;;;5.10;99.90;;;;;;10511850;28;20214;-70
2022/11/13 05:02:32;;;;;;;10.93;9.77;;;5.00;99.90;;;;;;10506233;28;20735;-71
2022/11/13 05:07:33;;;;;;;10.33;9.23;;;4.90;99.90;;;;;;10516616;28;20575;-71
2022/11/13 05:12:33;;;;;;;12.00;10.60;;;4.90;99.90;;;;;;10505907;28;20269;-70
2022/11/13 05:17:34;;;;;;;12.57;9.73;;;4.90;99.90;;;;;;10505642;28;20207;-71
2022/11/13 05:22:34;;;;;;;10.53;9.50;;;4.80;99.90;;;;;;10508582;28;20753;-72
2022/11/13 05:27:35;;;;;;;14.00;11.30;;;4.80;99.90;;;;;;10511873;28;20253;-71
2022/11/13 05:32:35;;;;;;;12.60;10.80;;;4.80;99.90;;;;;;10504693;28;20227;-72
2022/11/13 05:37:36;;;;;;;11.67;10.37;;;4.80;99.90;;;;;;10512174;28;20215;-70
2022/11/13 05:42:36;;;;;;;12.67;10.43;;;4.80;99.90;;;;;;10503991;28;20219;-70
2022/11/13 05:47:37;;;;;;;12.47;10.83;;;4.70;99.90;;;;;;10512204;28;20223;-74
2022/11/13 05:52:38;;;;;;;12.83;11.23;;;4.70;99.90;;;;;;10504408;28;20288;-74
2022/11/13 05:57:38;;;;;;;13.40;10.50;;;4.60;99.90;;;;;;10504816;28;20219;-72
2022/11/13 06:02:39;;;;;;;12.20;10.53;;;4.60;99.90;;;;;;10528001;28;20230;-72
2022/11/13 06:07:39;;;;;;;13.10;10.43;;;4.60;99.90;;;;;;10519269;28;20228;-71
2022/11/13 06:12:40;;;;;;;11.37;10.17;;;4.60;99.90;;;;;;10511356;28;20609;-72
2022/11/13 06:17:44;;;;;;;10.97;9.80;;;4.50;99.90;;;;;;10506573;28;20235;-73
2022/11/13 06:22:45;;;;;;;11.23;10.03;;;4.50;99.90;;;;;;10503337;28;20230;-73
2022/11/13 06:27:46;;;;;;;12.17;10.63;;;4.50;99.90;;;;;;10518537;28;20222;-71
2022/11/13 06:32:53;;;;;;;12.23;10.13;;;4.40;99.90;;;;;;10514265;28;20219;-70
2022/11/13 06:37:54;;;;;;;12.83;9.67;;;4.40;99.90;;;;;;10515182;28;20218;-72
2022/11/13 06:42:55;;;;;;;11.63;10.23;;;4.40;99.90;;;;;;10508759;28;20592;-73
2022/11/13 06:47:55;;;;;;;11.73;9.97;;;4.40;99.90;;;;;;10510649;28;20227;-72
2022/11/13 06:52:56;;;;;;;10.93;9.93;;;4.40;99.90;;;;;;10514184;28;20603;-71
2022/11/13 06:57:57;;;;;;;10.40;9.33;;;4.50;99.90;;;;;;10514308;28;20305;-73
2022/11/13 07:02:57;;;;;;;12.70;10.00;;;4.50;99.90;;;;;;10507235;28;20215;-73
2022/11/13 07:07:58;;;;;;;10.50;9.43;;;4.60;99.90;;;;;;10511241;28;20251;-72
2022/11/13 07:13:01;;;;;;;10.13;9.13;;;4.60;99.90;;;;;;10508218;28;20226;-72
2022/11/13 07:18:04;;;;;;;11.30;9.13;;;4.70;99.90;;;;;;10509952;28;20223;-72
2022/11/13 07:23:04;;;;;;;10.27;9.17;;;4.70;99.90;;;;;;10508859;28;20226;-71
2022/11/13 07:28:05;;;;;;;10.33;9.20;;;4.80;99.90;;;;;;10511305;28;20219;-72
2022/11/13 07:33:05;;;;;;;9.87;8.87;;;4.80;99.90;;;;;;10511993;28;20271;-73
2022/11/13 07:38:06;;;;;;;9.13;8.13;;;5.00;99.90;;;;;;10478189;28;20212;-72
2022/11/13 07:43:07;;;;;;;11.70;8.70;;;5.10;99.90;;;;;;10468822;28;20215;-71
2022/11/13 07:48:09;;;;;;;10.07;8.67;;;5.10;99.90;;;;;;10470701;28;20235;-72
2022/11/13 07:53:09;;;;;;;10.67;9.57;;;5.20;99.90;;;;;;10468652;28;20239;-72
2022/11/13 07:58:10;;;;;;;9.23;8.23;;;5.30;99.90;;;;;;10465456;28;20251;-73
2022/11/13 08:03:17;;;;;;;9.20;7.40;;;5.70;99.90;;;;;;10464954;28;20223;-74
2022/11/13 08:08:19;;;;;;;7.67;5.50;;;6.10;99.90;;;;;;10473856;28;20709;-73
2022/11/13 08:13:19;;;;;;;6.13;4.47;;;9.50;99.90;;;;;;10459558;28;20282;-74
2022/11/13 08:18:20;;;;;;;4.90;4.40;;;12.40;99.90;;;;;;10469448;28;20217;-74
2022/11/13 08:23:21;;;;;;;6.87;3.83;;;14.60;99.90;;;;;;10470508;28;20310;-73
2022/11/13 08:28:22;;;;;;;5.03;3.73;;;16.40;99.90;;;;;;10502046;28;20699;-73
2022/11/13 08:33:23;;;;;;;3.60;3.40;;;17.60;99.90;;;;;;10465922;28;20231;-72
2022/11/13 08:38:24;;;;;;;3.90;3.50;;;18.20;98.30;;;;;;10469359;28;20589;-73
2022/11/13 08:43:25;;;;;;;4.03;3.63;;;18.50;96.30;;;;;;10464930;28;20304;-73
2022/11/13 08:48:25;;;;;;;3.43;3.23;;;18.60;94.60;;;;;;10462627;28;20663;-70
2022/11/13 08:53:26;;;;;;;4.30;3.47;;;18.40;93.30;;;;;;10447471;28;20252;-70
2022/11/13 08:58:30;;;;;;;3.50;3.20;;;18.60;91.80;;;;;;10464075;28;20697;-70
2022/11/13 09:03:30;;;;;;;4.00;3.70;;;18.80;90.90;;;;;;10472521;28;20211;-71
2022/11/13 09:08:32;;;;;;;3.93;3.43;;;19.80;88.10;;;;;;10473595;28;20246;-74
2022/11/13 09:13:33;;;;;;;3.80;3.50;;;20.40;82.00;;;;;;10463965;28;20280;-71
2022/11/13 09:18:34;;;;;;;3.90;3.53;;;19.90;81.80;;;;;;10461883;28;20225;-70
2022/11/13 09:23:35;;;;;;;3.83;3.53;;;20.00;81.90;;;;;;10467537;28;20765;-72
2022/11/13 09:28:35;;;;;;;4.13;3.40;;;19.80;81.60;;;;;;10461188;28;20718;-74
2022/11/13 09:33:36;;;;;;;4.20;3.80;;;20.00;83.20;;;;;;10462917;28;20800;-74
2022/11/13 09:38:40;;;;;;;6.60;4.30;;;20.00;81.20;;;;;;10476157;28;20227;-72
2022/11/13 09:43:52;;;;;;;7.63;5.40;;;19.30;83.80;;;;;;10464126;28;20223;-69
2022/11/13 09:49:01;;;;;;;8.43;5.17;;;19.20;85.10;;;;;;10468560;28;20252;-71
2022/11/13 09:54:05;;;;;;;5.33;4.23;;;20.00;82.60;;;;;;10458145;28;20289;-70
2022/11/13 09:59:18;;;;;;;5.20;4.03;;;20.00;82.00;;;;;;10487549;28;20243;-69
2022/11/13 10:04:29;;;;;;;6.10;4.57;;;20.20;81.00;;;;;;10456758;28;20829;-67
2022/11/13 10:09:48;;;;;;;4.40;3.93;;;20.60;81.20;;;;;;10473381;28;20211;-70
2022/11/13 10:14:52;;;;;;;3.90;3.57;;;20.50;79.30;;;;;;10455999;28;20224;-73
2022/11/13 10:20:04;;;;;;;3.80;3.50;;;20.50;79.30;;;;;;10477685;28;20217;-72
2022/11/13 10:25:16;;;;;;;6.33;4.27;;;20.70;78.60;;;;;;10500233;28;20251;-74
2022/11/13 10:30:18;;;;;;;4.37;3.97;;;21.60;76.10;;;;;;10474818;28;20223;-70
2022/11/13 10:35:48;;;;;;;5.40;4.63;;;22.50;72.80;;;;;;10449773;28;21511;-69
2022/11/13 10:40:50;;;;;;;5.83;4.60;;;23.20;68.90;;;;;;10457072;28;20987;-72
2022/11/13 10:45:59;;;;;;;6.10;4.60;;;22.80;68.00;;;;;;10448223;28;20215;-70
2022/11/13 10:51:03;;;;;;;6.27;4.67;;;23.30;67.90;;;;;;10485250;28;20215;-73
2022/11/13 10:56:31;;;;;;;4.63;4.23;;;23.70;64.90;;;;;;10456961;28;20238;-73
2022/11/13 11:01:32;;;;;;;5.60;4.40;;;25.00;61.30;;;;;;10455424;28;20269;-73
2022/11/13 11:06:35;;;;;;;4.70;4.30;;;24.50;59.70;;;;;;10475376;28;20336;-73
2022/11/13 11:16:57;;;;;;;6.27;4.20;;;16.40;86.60;;;;;;10462923;28;20659;-75
2022/11/13 11:22:10;;;;;;;8.07;5.17;;;14.30;93.70;;;;;;10447496;28;20194;-70
2022/11/13 11:27:18;;;;;;;6.27;4.67;;;13.20;97.70;;;;;;10462824;28;20226;-71
2022/11/13 11:32:28;;;;;;;6.73;4.50;;;12.70;99.90;;;;;;10464401;28;20227;-74
2022/11/13 11:37:38;;;;;;;4.60;4.07;;;12.60;99.90;;;;;;10460432;28;20218;-74
2022/11/13 11:42:46;;;;;;;4.60;3.90;;;12.50;99.90;;;;;;10480206;28;20227;-74
2022/11/13 11:47:47;;;;;;;5.67;4.00;;;12.40;99.90;;;;;;10472400;28;20227;-75
2022/11/13 11:52:47;;;;;;;4.47;3.90;;;12.40;99.90;;;;;;10471536;28;20226;-73
2022/11/13 11:58:34;;;;;;;4.93;3.57;;;12.40;99.90;;;;;;10470754;28;20225;-73
2022/11/13 12:04:07;;;;;;;4.67;3.73;;;12.40;99.90;;;;;;10460281;28;20221;-73
2022/11/13 12:09:19;;;;;;;4.00;3.70;;;12.50;99.90;;;;;;10461125;28;20227;-72
2022/11/13 12:14:38;;;;;;;3.57;3.27;;;12.50;99.90;;;;;;10477013;28;20238;-74
2022/11/13 12:20:02;;;;;;;3.67;3.37;;;12.50;99.90;;;;;;10472715;28;20581;-74
2022/11/13 12:25:12;;;;;;;4.50;3.90;;;12.50;99.90;;;;;;10461427;28;20683;-74
2022/11/13 12:30:20;;;;;;;3.40;3.03;;;12.60;99.90;;;;;;10508496;28;20253;-74
2022/11/13 12:35:24;;;;;;;5.50;3.60;;;12.60;99.90;;;;;;10510329;28;20214;-74
2022/11/13 12:40:35;;;;;;;4.47;3.77;;;12.70;99.90;;;;;;10511295;28;20248;-73
2022/11/13 12:45:36;;;;;;;4.17;2.97;;;12.70;99.90;;;;;;10501832;28;20223;-74
2022/11/13 12:50:36;;;;;;;8.70;3.93;;;12.70;99.90;;;;;;10470714;28;20214;-74
2022/11/13 12:55:40;;;;;;;3.87;3.17;;;12.60;99.90;;;;;;10459385;28;20321;-73
2022/11/13 13:01:09;;;;;;;4.60;3.40;;;12.70;99.90;;;;;;10453101;28;20230;-72
2022/11/13 13:06:16;;;;;;;5.00;3.67;;;12.70;99.90;;;;;;10494866;28;20226;-74
2022/11/13 13:11:42;;;;;;;5.23;3.70;;;12.60;99.90;;;;;;10470876;28;20231;-72
2022/11/13 13:16:43;;;;;;;5.10;4.60;;;12.60;99.90;;;;;;10474569;28;20268;-73
2022/11/13 13:21:43;;;;;;;3.87;3.47;;;12.60;99.90;;;;;;10458777;28;20215;-73
2022/11/13 13:26:46;;;;;;;4.80;3.20;;;12.60;99.90;;;;;;10470516;28;20689;-73
2022/11/13 13:32:12;;;;;;;3.97;3.50;;;12.60;99.90;;;;;;10460868;28;20226;-73
2022/11/13 13:37:37;;;;;;;4.63;3.20;;;12.70;99.90;;;;;;10462898;28;20643;-74
2022/11/13 13:43:01;;;;;;;4.30;2.93;;;12.70;99.90;;;;;;10492456;28;20225;-75
2022/11/13 13:48:10;;;;;;;3.33;2.93;;;12.60;99.90;;;;;;10459491;28;20246;-74
2022/11/13 13:53:17;;;;;;;3.10;2.80;;;12.50;99.90;;;;;;10468832;28;20226;-74
2022/11/13 13:58:31;;;;;;;3.57;2.80;;;12.50;99.90;;;;;;10471356;28;20293;-74
2022/11/13 14:03:32;;;;;;;5.67;3.33;;;12.50;99.90;;;;;;10464688;28;20214;-74
2022/11/13 14:08:33;;;;;;;3.10;2.87;;;12.40;99.90;;;;;;10471636;28;20545;-72
2022/11/13 14:13:33;;;;;;;3.00;2.70;;;12.30;99.90;;;;;;10524409;28;20595;-73
2022/11/13 14:18:34;;;;;;;3.90;3.20;;;12.30;99.90;;;;;;10474644;28;20218;-73
2022/11/13 14:23:50;;;;;;;3.67;2.83;;;12.30;99.90;;;;;;10469654;28;20226;-74
2022/11/13 14:29:03;;;;;;;3.33;2.93;;;12.30;99.90;;;;;;10436090;28;20214;-73
2022/11/13 14:34:13;;;;;;;3.53;3.00;;;12.20;99.90;;;;;;10454815;28;20231;-73
2022/11/13 14:39:25;;;;;;;4.17;3.10;;;12.10;99.90;;;;;;10466914;28;20220;-74
2022/11/13 14:44:31;;;;;;;4.67;3.10;;;12.00;99.90;;;;;;10478019;28;20228;-73
2022/11/13 14:49:34;;;;;;;4.30;3.03;;;12.00;99.90;;;;;;10470098;28;20219;-74
2022/11/13 14:54:37;;;;;;;3.23;2.93;;;11.90;99.90;;;;;;10474793;28;20644;-74
2022/11/13 14:59:41;;;;;;;3.87;3.07;;;11.80;99.90;;;;;;10474110;28;20217;-74
2022/11/13 15:04:42;;;;;;;4.00;3.10;;;11.70;99.90;;;;;;10470807;28;20492;-74
2022/11/13 15:09:43;;;;;;;3.97;3.47;;;11.50;99.90;;;;;;10442909;28;20243;-73
2022/11/13 15:14:45;;;;;;;4.50;3.30;;;11.40;99.90;;;;;;10463525;28;20656;-73
2022/11/13 15:19:49;;;;;;;5.00;3.80;;;11.30;99.90;;;;;;10458134;28;20226;-73
2022/11/13 15:25:34;;;;;;;4.60;3.43;;;11.20;99.90;;;;;;10460929;28;20291;-74
2022/11/13 15:30:34;;;;;;;4.60;3.63;;;11.10;99.90;;;;;;10490451;28;20214;-73
2022/11/13 15:35:39;;;;;;;5.83;3.60;;;10.90;99.90;;;;;;10467210;28;20230;-73
2022/11/13 15:40:39;;;;;;;4.33;3.60;;;10.70;99.90;;;;;;10458975;28;20306;-73
2022/11/13 15:45:40;;;;;;;5.43;3.47;;;10.50;99.90;;;;;;10463629;28;20223;-72
2022/11/13 15:50:40;;;;;;;3.90;3.50;;;10.40;99.90;;;;;;10465051;28;20222;-73
2022/11/13 15:55:41;;;;;;;5.23;4.07;;;10.30;99.90;;;;;;10472657;28;20235;-74
2022/11/13 16:00:44;;;;;;;5.47;4.30;;;10.20;99.90;;;;;;10461067;28;20694;-73
2022/11/13 16:05:45;;;;;;;4.27;3.83;;;10.10;99.90;;;;;;10451141;28;20225;-75
2022/11/13 16:10:45;;;;;;;8.87;4.33;;;10.00;99.90;;;;;;10463586;28;20211;-74
2022/11/13 16:15:47;;;;;;;7.27;5.13;;;9.80;99.90;;;;;;10471758;28;20336;-73
2022/11/13 16:20:48;;;;;;;8.90;6.33;;;9.70;99.90;;;;;;10461586;28;20214;-73
2022/11/13 16:25:49;;;;;;;11.77;7.00;;;9.60;99.90;;;;;;10470734;28;20213;-72
2022/11/13 16:30:52;;;;;;;12.23;8.53;;;9.50;99.90;;;;;;10459655;28;20211;-73
2022/11/13 16:35:53;;;;;;;14.23;9.70;;;9.40;99.90;;;;;;10467224;28;20275;-73
2022/11/13 16:40:54;;;;;;;14.70;10.90;;;9.40;99.90;;;;;;10461903;28;20218;-72
2022/11/13 16:45:57;;;;;;;11.60;8.77;;;9.40;99.90;;;;;;10461856;28;20316;-72
2022/11/13 16:50:58;;;;;;;7.30;5.60;;;9.30;99.90;;;;;;10462103;28;20217;-70
2022/11/13 16:56:00;;;;;;;6.67;5.93;;;9.20;99.90;;;;;;10469539;28;20710;-71
2022/11/13 17:01:04;;;;;;;10.50;7.20;;;9.10;99.90;;;;;;10463275;28;20647;-70
2022/11/13 17:06:05;;;;;;;9.97;7.40;;;9.10;99.90;;;;;;10475928;28;20279;-71
2022/11/13 17:11:09;;;;;;;8.20;7.27;;;9.00;99.90;;;;;;10458568;28;20248;-70
2022/11/13 17:16:11;;;;;;;9.77;7.17;;;8.90;99.90;;;;;;10462535;28;20238;-70
2022/11/13 17:21:12;;;;;;;9.03;6.43;;;8.80;99.90;;;;;;10468561;28;20961;-71
2022/11/13 17:26:16;;;;;;;10.23;6.60;;;8.80;99.90;;;;;;10515241;28;20351;-70
2022/11/13 17:31:16;;;;;;;8.40;6.67;;;8.80;99.90;;;;;;10464938;28;20220;-69
2022/11/13 17:36:17;;;;;;;9.73;6.77;;;8.60;99.90;;;;;;10474599;28;20238;-70
2022/11/13 17:41:18;;;;;;;11.77;8.13;;;8.40;99.90;;;;;;10461110;28;20637;-70
2022/11/13 17:46:19;;;;;;;10.07;7.30;;;8.20;99.90;;;;;;10463337;28;20228;-69
2022/11/13 17:51:19;;;;;;;9.60;7.63;;;8.00;99.90;;;;;;10473030;28;20246;-69
2022/11/13 17:56:20;;;;;;;8.40;6.63;;;7.80;99.90;;;;;;10464312;28;20228;-69
2022/11/13 18:01:21;;;;;;;17.73;11.73;;;7.70;99.90;;;;;;10469767;28;20221;-69
2022/11/13 18:06:22;;;;;;;15.13;10.97;;;7.60;99.90;;;;;;10465493;28;20418;-69
2022/11/13 18:11:25;;;;;;;11.47;9.20;;;7.50;99.90;;;;;;10473907;28;20636;-70
2022/11/13 18:16:32;;;;;;;14.67;9.67;;;7.50;99.90;;;;;;10462241;28;20318;-70
2022/11/13 18:21:34;;;;;;;14.33;10.63;;;7.40;99.90;;;;;;10486848;28;20231;-71
2022/11/13 18:26:35;;;;;;;12.17;9.97;;;7.30;99.90;;;;;;10476522;28;20926;-71
2022/11/13 18:31:37;;;;;;;10.50;8.83;;;7.20;99.90;;;;;;10471862;28;20285;-70
2022/11/13 18:36:37;;;;;;;12.50;9.77;;;7.10;99.90;;;;;;10470431;28;20223;-68
2022/11/13 18:41:38;;;;;;;11.50;9.00;;;7.10;99.90;;;;;;10455126;28;20705;-69
2022/11/13 18:46:39;;;;;;;11.80;9.43;;;7.00;99.90;;;;;;10449158;28;20265;-69
2022/11/13 18:51:39;;;;;;;10.27;8.27;;;7.00;99.90;;;;;;10458046;28;20316;-70
2022/11/13 18:56:41;;;;;;;9.43;7.77;;;6.90;99.90;;;;;;10469116;28;20226;-69
2022/11/13 19:01:41;;;;;;;11.10;8.87;;;6.80;99.90;;;;;;10465361;28;20232;-69
2022/11/13 19:06:42;;;;;;;12.53;9.30;;;6.80;99.90;;;;;;10462707;28;20211;-70
2022/11/13 19:11:44;;;;;;;12.93;10.03;;;6.70;99.90;;;;;;10466178;28;20246;-71
2022/11/13 19:16:45;;;;;;;15.77;11.17;;;6.70;99.90;;;;;;10474813;28;20228;-68
2022/11/13 19:21:46;;;;;;;18.00;13.37;;;6.70;99.90;;;;;;10462377;28;20222;-71
2022/11/13 19:26:47;;;;;;;17.27;12.97;;;6.70;99.90;;;;;;10467576;28;20307;-70
2022/11/13 19:31:48;;;;;;;19.73;13.27;;;6.60;99.90;;;;;;10465686;28;20766;-67
2022/11/13 19:36:50;;;;;;;14.10;11.07;;;6.60;99.90;;;;;;10474011;28;20905;-70
2022/11/13 19:41:50;;;;;;;13.70;9.97;;;6.60;99.90;;;;;;10465396;28;20598;-72
2022/11/13 19:46:54;;;;;;;12.83;10.87;;;6.50;99.90;;;;;;10454972;28;20215;-70
2022/11/13 19:51:55;;;;;;;17.87;12.73;;;6.50;99.90;;;;;;10474037;28;20216;-69
2022/11/13 19:56:56;;;;;;;14.67;12.27;;;6.70;99.90;;;;;;10447939;28;20216;-69
2022/11/13 20:02:00;;;;;;;13.03;10.43;;;6.80;99.90;;;;;;10448459;28;20298;-75
2022/11/13 20:07:00;;;;;;;13.00;10.23;;;6.90;99.90;;;;;;10454347;28;20220;-72
2022/11/13 20:12:01;;;;;;;14.80;10.60;;;6.80;99.90;;;;;;10454879;28;20213;-74
2022/11/13 20:17:02;;;;;;;11.93;10.37;;;6.80;99.90;;;;;;10452217;28;20899;-77
2022/11/13 20:22:03;;;;;;;11.70;10.10;;;6.60;99.90;;;;;;10470856;28;20237;-72
2022/11/13 20:27:03;;;;;;;12.40;10.47;;;6.50;99.90;;;;;;10496718;28;20706;-70
2022/11/13 20:32:04;;;;;;;15.43;13.70;;;6.50;99.90;;;;;;10471902;28;20218;-69
2022/11/13 20:37:04;;;;;;;11.27;10.03;;;6.50;99.90;;;;;;10446962;28;20234;-70
2022/11/13 20:42:05;;;;;;;12.90;10.90;;;6.40;99.90;;;;;;10451784;28;20313;-73
2022/11/13 20:47:05;;;;;;;10.40;9.20;;;6.40;99.90;;;;;;10447166;28;20215;-75
2022/11/13 20:52:09;;;;;;;12.30;9.77;;;6.30;99.90;;;;;;10459743;28;20230;-75
2022/11/13 20:57:10;;;;;;;13.03;10.13;;;6.30;99.90;;;;;;10463938;28;20239;-74
2022/11/13 21:02:11;;;;;;;12.37;9.50;;;6.40;99.90;;;;;;10469328;28;20564;-76
2022/11/13 21:07:14;;;;;;;10.73;9.07;;;6.40;99.90;;;;;;10461049;28;20215;-72
2022/11/13 21:12:14;;;;;;;12.70;9.03;;;6.40;99.90;;;;;;10458179;28;20298;-71
2022/11/13 21:17:15;;;;;;;11.33;9.50;;;6.40;99.90;;;;;;10464488;28;20300;-71
2022/11/13 21:22:16;;;;;;;11.87;10.17;;;6.30;99.90;;;;;;10451887;28;20241;-73
2022/11/13 21:27:16;;;;;;;14.43;9.93;;;6.30;99.90;;;;;;10477975;28;20219;-73
2022/11/13 21:32:17;;;;;;;13.67;10.37;;;6.20;99.90;;;;;;10492105;28;20590;-72
2022/11/13 21:37:17;;;;;;;15.70;12.13;;;6.20;99.90;;;;;;10481690;28;20224;-74
2022/11/13 21:42:18;;;;;;;13.50;10.37;;;6.10;99.90;;;;;;10475814;28;20292;-72
2022/11/13 21:47:18;;;;;;;12.17;9.97;;;6.00;99.90;;;;;;10471829;28;20215;-73
2022/11/13 21:52:19;;;;;;;10.70;8.97;;;6.00;99.90;;;;;;10473784;28;20215;-74
2022/11/13 21:57:21;;;;;;;10.13;8.63;;;5.90;99.90;;;;;;10470289;28;20211;-71
2022/11/13 22:02:22;;;;;;;10.97;9.20;;;5.80;99.90;;;;;;10477923;28;20228;-76
2022/11/13 22:07:23;;;;;;;10.50;8.83;;;5.80;99.90;;;;;;10488459;28;20727;-78
2022/11/13 22:12:24;;;;;;;10.27;8.43;;;5.80;99.90;;;;;;10464200;28;20216;-74
2022/11/13 22:17:24;;;;;;;10.53;8.97;;;5.70;99.90;;;;;;10491120;28;20215;-74
2022/11/13 22:22:25;;;;;;;9.40;8.40;;;5.70;99.90;;;;;;10467874;28;20216;-73
2022/11/13 22:27:26;;;;;;;10.57;8.77;;;5.70;99.90;;;;;;10467731;28;20916;-72
2022/11/13 22:32:26;;;;;;;9.50;8.37;;;5.60;99.90;;;;;;10473273;28;20215;-71
2022/11/13 22:37:27;;;;;;;9.00;7.93;;;5.60;99.90;;;;;;10468625;28;20239;-71
2022/11/13 22:42:27;;;;;;;10.33;8.43;;;5.50;99.90;;;;;;10469370;28;20690;-70
2022/11/13 22:47:28;;;;;;;12.20;9.67;;;5.50;99.90;;;;;;10477755;28;20708;-70
2022/11/13 22:52:28;;;;;;;11.30;9.47;;;5.40;99.90;;;;;;10469031;28;20258;-72
2022/11/13 22:57:30;;;;;;;29.80;16.03;;;5.50;99.90;;;;;;10488078;28;20211;-73
2022/11/13 23:02:31;;;;;;;16.20;10.43;;;5.50;99.90;;;;;;10489684;28;20658;-73
2022/11/13 23:07:31;;;;;;;11.07;8.87;;;5.50;99.90;;;;;;10475303;28;20215;-72
2022/11/13 23:12:32;;;;;;;11.63;8.70;;;5.50;99.90;;;;;;10468634;28;20709;-72
2022/11/13 23:17:32;;;;;;;12.87;8.63;;;5.60;99.90;;;;;;10469553;28;20219;-72
2022/11/13 23:22:33;;;;;;;13.10;9.33;;;5.60;99.90;;;;;;10466250;28;20574;-70
2022/11/13 23:27:34;;;;;;;17.43;10.37;;;5.50;99.90;;;;;;10466370;28;20302;-70
2022/11/13 23:32:34;;;;;;;11.97;8.23;;;5.50;99.90;;;;;;10467217;28;20307;-73
2022/11/13 23:37:35;;;;;;;10.80;8.97;;;5.40;99.90;;;;;;10464992;28;20238;-71
2022/11/13 23:42:35;;;;;;;11.93;10.00;;;5.40;99.90;;;;;;10456105;28;20634;-71
2022/11/13 23:47:36;;;;;;;18.03;13.07;;;5.50;99.90;;;;;;10465542;28;20219;-71
2022/11/13 23:52:40;;;;;;;16.80;14.37;;;5.70;99.90;;;;;;10462758;28;20690;-71
2022/11/13 23:57:40;;;;;;;17.33;14.23;;;5.80;99.90;;;;;;10464037;28;20220;-71
